CheckWX is a tool to help pilots better visualize weather data.  It is not intended as a substitute for an official pre-flight weather briefing.

23:04:22 UTC

KLXL METAR
Little Falls / Morrison County-Lindbergh Field Airport
Little Falls, Minnesota, USA
Current

9 mins ago

KLXL 082255Z AUTO 07004KT 10SM OVC015 00/M02 A2978 RMK AO2
Observed
Dec-8 @ 22:55 UTC
Wind
  • 070° at 4 KTS
Visibility
10 SM
Flight Rules
MVFR
Cloud Levels
  • Overcast at 1,500' AGL
Temperature
C / 32°F
Dewpoint
-2°C / 28°F
Humidity
87%
Altimeter
29.78" Hg
Pressure
1008.42 hPa
Previous

29 mins ago

KLXL 082235Z AUTO 06003KT 10SM OVC015 00/M02 A2978 RMK AO2
Observed
Dec-8 @ 22:35 UTC
Wind
  • 060° at 3 KTS
Visibility
10 SM
Flight Rules
MVFR
Cloud Levels
  • Overcast at 1,500' AGL
Temperature
C / 32°F
Dewpoint
-2°C / 28°F
Humidity
87%
Altimeter
29.78" Hg
Pressure
1008.42 hPa
Previous

49 mins ago

KLXL 082215Z AUTO 00000KT 10SM OVC015 00/M02 A2978 RMK AO2
Observed
Dec-8 @ 22:15 UTC
Visibility
10 SM
Flight Rules
MVFR
Cloud Levels
  • Overcast at 1,500' AGL
Temperature
C / 32°F
Dewpoint
-2°C / 28°F
Humidity
87%
Altimeter
29.78" Hg
Pressure
1008.42 hPa